Bergenline, New Jersey
Current Conditions -  °F | °C
As of 8:51 PM on Saturday 20 Dec 2014 (Local Time) from KNYC Reporting Station
Overcast Overcast  
Wind Chill: 27°   Ceiling: 2900
Heat Index: 32°   Visibility: 10mi
Dew Point: 20°   Wind: 5mph
Humidity: 61%   Direction: NA
Pressure: 30.31"   Gusts: NA
Location:  40.7693°N, 74.0322°W
Report Text: KNYC 210151Z AUTO VRB04KT 10SM OVC029 00/M07 A3031 RMK AO2 SLP257 T00001067 $
Loading
Personal Weather Stations






























Interactive Weather Map New forecast layout! Learn more

10-Day Weather Forecast

Advertisements
Track Severe Weather on mobile